Orange Beach, Alabama
Current Conditions -  °F | °C
As of 10:55 AM on Wednesday 22 Oct 2014 (Local Time) from KJKA Reporting Station
Clear Clear  
Wind Chill: 71°   Ceiling: Unl
Heat Index: 71°   Visibility: 10mi
Dew Point: 54°   Wind: 7mph
Humidity: 55%   Direction: 40°NE
Pressure: 30.09"   Gusts: NA
Location:  30.29°N, 87.57°W
Report Text: KJKA 221555Z AUTO 04006KT 10SM CLR 22/12 A3009 RMK AO2 T02190124
Loading
Personal Weather Stations






























Interactive Weather Map New forecast layout! Learn more

10-Day Weather Forecast

Advertisements
Track Severe Weather on mobile